sensor_id;sensor_type;location;lat;lon;timestamp;P1;durP1;ratioP1;P2;durP2;ratioP2
34497;SDS011;20744;50.938;7.286;2023-12-20T00:02:20;38.05;;;16.55;;
34497;SDS011;20744;50.938;7.286;2023-12-20T00:04:47;24.15;;;14.73;;
34497;SDS011;20744;50.938;7.286;2023-12-20T00:07:15;21.58;;;13.35;;
34497;SDS011;20744;50.938;7.286;2023-12-20T00:09:42;23.50;;;14.40;;
34497;SDS011;20744;50.938;7.286;2023-12-20T00:12:09;24.00;;;14.13;;
34497;SDS011;20744;50.938;7.286;2023-12-20T00:14:36;24.48;;;15.05;;
34497;SDS011;20744;50.938;7.286;2023-12-20T00:17:05;27.60;;;15.55;;
34497;SDS011;20744;50.938;7.286;2023-12-20T00:19:33;25.35;;;14.95;;
34497;SDS011;20744;50.938;7.286;2023-12-20T00:22:00;38.22;;;17.20;;
34497;SDS011;20744;50.938;7.286;2023-12-20T00:24:28;30.55;;;17.50;;
34497;SDS011;20744;50.938;7.286;2023-12-20T00:26:55;25.50;;;15.80;;
34497;SDS011;20744;50.938;7.286;2023-12-20T00:29:22;34.47;;;16.60;;
34497;SDS011;20744;50.938;7.286;2023-12-20T00:31:49;47.70;;;18.70;;
34497;SDS011;20744;50.938;7.286;2023-12-20T00:34:18;24.48;;;15.13;;
34497;SDS011;20744;50.938;7.286;2023-12-20T00:36:45;23.38;;;13.38;;
34497;SDS011;20744;50.938;7.286;2023-12-20T00:39:12;18.73;;;12.27;;
34497;SDS011;20744;50.938;7.286;2023-12-20T00:41:42;19.35;;;12.10;;
34497;SDS011;20744;50.938;7.286;2023-12-20T00:44:10;18.48;;;12.27;;
34497;SDS011;20744;50.938;7.286;2023-12-20T00:46:37;19.92;;;11.43;;
34497;SDS011;20744;50.938;7.286;2023-12-20T00:49:04;19.98;;;12.00;;
34497;SDS011;20744;50.938;7.286;2023-12-20T00:51:33;21.95;;;11.52;;
34497;SDS011;20744;50.938;7.286;2023-12-20T00:54:00;17.88;;;11.27;;
34497;SDS011;20744;50.938;7.286;2023-12-20T00:56:28;23.52;;;13.13;;
34497;SDS011;20744;50.938;7.286;2023-12-20T00:58:55;20.13;;;12.32;;
34497;SDS011;20744;50.938;7.286;2023-12-20T01:01:22;16.65;;;11.02;;
34497;SDS011;20744;50.938;7.286;2023-12-20T01:03:49;15.77;;;9.88;;
34497;SDS011;20744;50.938;7.286;2023-12-20T01:06:17;14.15;;;9.60;;
34497;SDS011;20744;50.938;7.286;2023-12-20T01:08:46;12.57;;;7.93;;
34497;SDS011;20744;50.938;7.286;2023-12-20T01:11:14;10.57;;;6.80;;
34497;SDS011;20744;50.938;7.286;2023-12-20T01:13:41;9.00;;;5.97;;
34497;SDS011;20744;50.938;7.286;2023-12-20T01:16:11;11.02;;;5.82;;
34497;SDS011;20744;50.938;7.286;2023-12-20T01:18:44;12.23;;;6.38;;
34497;SDS011;20744;50.938;7.286;2023-12-20T01:21:12;11.98;;;5.47;;
34497;SDS011;20744;50.938;7.286;2023-12-20T01:23:39;11.95;;;5.70;;
34497;SDS011;20744;50.938;7.286;2023-12-20T01:26:08;13.82;;;5.50;;
34497;SDS011;20744;50.938;7.286;2023-12-20T01:28:36;11.88;;;5.80;;
34497;SDS011;20744;50.938;7.286;2023-12-20T01:31:04;13.13;;;6.15;;
34497;SDS011;20744;50.938;7.286;2023-12-20T01:33:31;12.48;;;6.68;;
34497;SDS011;20744;50.938;7.286;2023-12-20T01:35:58;15.90;;;7.57;;
34497;SDS011;20744;50.938;7.286;2023-12-20T01:38:25;16.85;;;6.97;;
34497;SDS011;20744;50.938;7.286;2023-12-20T01:40:53;18.33;;;7.45;;
34497;SDS011;20744;50.938;7.286;2023-12-20T01:43:21;12.55;;;6.47;;
34497;SDS011;20744;50.938;7.286;2023-12-20T01:45:49;18.42;;;7.55;;
34497;SDS011;20744;50.938;7.286;2023-12-20T01:48:16;13.98;;;7.05;;
34497;SDS011;20744;50.938;7.286;2023-12-20T01:50:43;17.90;;;7.63;;
34497;SDS011;20744;50.938;7.286;2023-12-20T01:53:12;18.23;;;7.05;;
34497;SDS011;20744;50.938;7.286;2023-12-20T01:55:40;15.45;;;7.40;;
34497;SDS011;20744;50.938;7.286;2023-12-20T01:58:07;14.23;;;7.18;;
34497;SDS011;20744;50.938;7.286;2023-12-20T02:00:37;14.27;;;6.82;;
34497;SDS011;20744;50.938;7.286;2023-12-20T02:03:04;17.80;;;8.00;;
34497;SDS011;20744;50.938;7.286;2023-12-20T02:05:32;23.10;;;8.02;;
34497;SDS011;20744;50.938;7.286;2023-12-20T02:08:00;25.85;;;10.18;;
34497;SDS011;20744;50.938;7.286;2023-12-20T02:10:27;25.88;;;11.77;;
34497;SDS011;20744;50.938;7.286;2023-12-20T02:12:55;24.63;;;13.13;;
34497;SDS011;20744;50.938;7.286;2023-12-20T02:15:22;28.58;;;14.05;;
34497;SDS011;20744;50.938;7.286;2023-12-20T02:17:51;25.42;;;13.38;;
34497;SDS011;20744;50.938;7.286;2023-12-20T02:20:18;28.40;;;13.75;;
34497;SDS011;20744;50.938;7.286;2023-12-20T02:22:46;21.58;;;12.48;;
34497;SDS011;20744;50.938;7.286;2023-12-20T02:25:13;22.92;;;12.13;;
34497;SDS011;20744;50.938;7.286;2023-12-20T02:27:40;20.60;;;11.35;;
34497;SDS011;20744;50.938;7.286;2023-12-20T02:30:08;23.92;;;9.40;;
34497;SDS011;20744;50.938;7.286;2023-12-20T02:32:35;23.83;;;10.05;;
34497;SDS011;20744;50.938;7.286;2023-12-20T02:35:03;20.90;;;10.00;;
34497;SDS011;20744;50.938;7.286;2023-12-20T02:37:30;19.05;;;9.60;;
34497;SDS011;20744;50.938;7.286;2023-12-20T02:39:58;18.23;;;9.38;;
34497;SDS011;20744;50.938;7.286;2023-12-20T02:42:26;18.85;;;9.90;;
34497;SDS011;20744;50.938;7.286;2023-12-20T02:44:53;23.65;;;9.85;;
34497;SDS011;20744;50.938;7.286;2023-12-20T02:47:20;19.80;;;9.65;;
34497;SDS011;20744;50.938;7.286;2023-12-20T02:49:47;18.27;;;8.95;;
34497;SDS011;20744;50.938;7.286;2023-12-20T02:52:15;18.38;;;9.77;;
34497;SDS011;20744;50.938;7.286;2023-12-20T02:54:42;32.67;;;10.07;;
34497;SDS011;20744;50.938;7.286;2023-12-20T02:57:11;18.23;;;9.65;;
34497;SDS011;20744;50.938;7.286;2023-12-20T02:59:38;19.80;;;9.77;;
34497;SDS011;20744;50.938;7.286;2023-12-20T03:02:05;23.98;;;9.68;;
34497;SDS011;20744;50.938;7.286;2023-12-20T03:04:33;28.70;;;9.10;;
34497;SDS011;20744;50.938;7.286;2023-12-20T03:07:00;19.13;;;8.70;;
34497;SDS011;20744;50.938;7.286;2023-12-20T03:09:27;25.65;;;9.48;;
34497;SDS011;20744;50.938;7.286;2023-12-20T03:11:55;28.25;;;10.85;;
34497;SDS011;20744;50.938;7.286;2023-12-20T03:14:23;23.08;;;9.18;;
34497;SDS011;20744;50.938;7.286;2023-12-20T03:16:50;29.67;;;8.85;;
34497;SDS011;20744;50.938;7.286;2023-12-20T03:19:18;31.70;;;9.52;;
34497;SDS011;20744;50.938;7.286;2023-12-20T03:21:45;26.70;;;8.85;;
34497;SDS011;20744;50.938;7.286;2023-12-20T03:24:12;34.70;;;9.15;;
34497;SDS011;20744;50.938;7.286;2023-12-20T03:26:40;27.15;;;9.43;;
34497;SDS011;20744;50.938;7.286;2023-12-20T03:29:07;33.95;;;9.82;;
34497;SDS011;20744;50.938;7.286;2023-12-20T03:31:38;24.15;;;7.93;;
34497;SDS011;20744;50.938;7.286;2023-12-20T03:34:05;37.97;;;8.25;;
34497;SDS011;20744;50.938;7.286;2023-12-20T03:36:33;19.58;;;7.43;;
34497;SDS011;20744;50.938;7.286;2023-12-20T03:39:00;27.95;;;6.57;;
34497;SDS011;20744;50.938;7.286;2023-12-20T03:41:28;22.65;;;6.25;;
34497;SDS011;20744;50.938;7.286;2023-12-20T03:43:55;26.35;;;6.97;;
34497;SDS011;20744;50.938;7.286;2023-12-20T03:46:25;28.70;;;6.55;;
34497;SDS011;20744;50.938;7.286;2023-12-20T03:48:54;19.27;;;5.47;;
34497;SDS011;20744;50.938;7.286;2023-12-20T03:51:21;22.52;;;5.20;;
34497;SDS011;20744;50.938;7.286;2023-12-20T03:53:48;18.92;;;5.65;;
34497;SDS011;20744;50.938;7.286;2023-12-20T03:56:16;19.40;;;5.88;;
34497;SDS011;20744;50.938;7.286;2023-12-20T03:58:43;23.67;;;5.35;;
34497;SDS011;20744;50.938;7.286;2023-12-20T04:01:10;22.70;;;6.18;;
34497;SDS011;20744;50.938;7.286;2023-12-20T04:03:38;22.42;;;5.15;;
34497;SDS011;20744;50.938;7.286;2023-12-20T04:06:07;15.50;;;4.63;;
34497;SDS011;20744;50.938;7.286;2023-12-20T04:08:35;21.75;;;5.07;;
34497;SDS011;20744;50.938;7.286;2023-12-20T04:11:02;18.08;;;4.45;;
34497;SDS011;20744;50.938;7.286;2023-12-20T04:13:29;19.70;;;4.63;;
34497;SDS011;20744;50.938;7.286;2023-12-20T04:15:56;14.90;;;4.63;;
34497;SDS011;20744;50.938;7.286;2023-12-20T04:18:24;26.20;;;6.00;;
34497;SDS011;20744;50.938;7.286;2023-12-20T04:20:51;20.38;;;5.28;;
34497;SDS011;20744;50.938;7.286;2023-12-20T04:23:20;23.33;;;4.55;;
34497;SDS011;20744;50.938;7.286;2023-12-20T04:25:47;23.27;;;4.28;;
34497;SDS011;20744;50.938;7.286;2023-12-20T04:28:14;25.90;;;4.60;;
34497;SDS011;20744;50.938;7.286;2023-12-20T04:30:42;18.15;;;4.50;;
34497;SDS011;20744;50.938;7.286;2023-12-20T04:33:09;23.98;;;4.55;;
34497;SDS011;20744;50.938;7.286;2023-12-20T04:35:36;21.50;;;4.85;;
34497;SDS011;20744;50.938;7.286;2023-12-20T04:38:05;23.30;;;4.50;;
34497;SDS011;20744;50.938;7.286;2023-12-20T04:40:34;24.13;;;4.28;;
34497;SDS011;20744;50.938;7.286;2023-12-20T04:43:01;23.27;;;4.75;;
34497;SDS011;20744;50.938;7.286;2023-12-20T04:45:29;19.08;;;4.40;;
34497;SDS011;20744;50.938;7.286;2023-12-20T04:47:56;24.05;;;4.63;;
34497;SDS011;20744;50.938;7.286;2023-12-20T04:50:23;16.83;;;4.25;;
34497;SDS011;20744;50.938;7.286;2023-12-20T04:52:51;20.77;;;3.83;;
34497;SDS011;20744;50.938;7.286;2023-12-20T04:55:18;31.27;;;5.10;;
34497;SDS011;20744;50.938;7.286;2023-12-20T04:57:47;27.52;;;4.95;;
34497;SDS011;20744;50.938;7.286;2023-12-20T05:00:15;28.08;;;5.60;;
34497;SDS011;20744;50.938;7.286;2023-12-20T05:02:42;27.42;;;4.63;;
34497;SDS011;20744;50.938;7.286;2023-12-20T05:05:09;30.65;;;5.07;;
34497;SDS011;20744;50.938;7.286;2023-12-20T05:07:37;24.73;;;4.13;;
34497;SDS011;20744;50.938;7.286;2023-12-20T05:10:09;23.58;;;5.28;;
34497;SDS011;20744;50.938;7.286;2023-12-20T05:12:37;28.52;;;5.45;;
34497;SDS011;20744;50.938;7.286;2023-12-20T05:15:06;32.00;;;5.40;;
34497;SDS011;20744;50.938;7.286;2023-12-20T05:17:34;25.67;;;4.63;;
34497;SDS011;20744;50.938;7.286;2023-12-20T05:20:01;28.35;;;4.53;;
34497;SDS011;20744;50.938;7.286;2023-12-20T05:22:28;26.90;;;5.00;;
34497;SDS011;20744;50.938;7.286;2023-12-20T05:24:55;30.98;;;5.57;;
34497;SDS011;20744;50.938;7.286;2023-12-20T05:27:23;20.88;;;4.53;;
34497;SDS011;20744;50.938;7.286;2023-12-20T05:29:50;28.75;;;4.72;;
34497;SDS011;20744;50.938;7.286;2023-12-20T05:32:19;27.65;;;5.00;;
34497;SDS011;20744;50.938;7.286;2023-12-20T05:34:46;30.77;;;5.28;;
34497;SDS011;20744;50.938;7.286;2023-12-20T05:37:13;20.70;;;5.00;;
34497;SDS011;20744;50.938;7.286;2023-12-20T05:39:41;18.05;;;4.22;;
34497;SDS011;20744;50.938;7.286;2023-12-20T05:42:08;24.15;;;5.28;;
34497;SDS011;20744;50.938;7.286;2023-12-20T05:44:35;24.50;;;4.80;;
34497;SDS011;20744;50.938;7.286;2023-12-20T05:47:03;33.35;;;5.20;;
34497;SDS011;20744;50.938;7.286;2023-12-20T05:49:32;23.15;;;5.40;;
34497;SDS011;20744;50.938;7.286;2023-12-20T05:51:59;28.95;;;6.32;;
34497;SDS011;20744;50.938;7.286;2023-12-20T05:54:26;22.02;;;5.30;;
34497;SDS011;20744;50.938;7.286;2023-12-20T05:56:54;21.42;;;5.18;;
34497;SDS011;20744;50.938;7.286;2023-12-20T05:59:21;33.08;;;5.28;;
34497;SDS011;20744;50.938;7.286;2023-12-20T06:01:49;23.27;;;4.85;;
34497;SDS011;20744;50.938;7.286;2023-12-20T06:04:16;19.27;;;5.28;;
34497;SDS011;20744;50.938;7.286;2023-12-20T06:06:45;21.48;;;5.53;;
34497;SDS011;20744;50.938;7.286;2023-12-20T06:09:12;19.42;;;5.25;;
34497;SDS011;20744;50.938;7.286;2023-12-20T06:11:42;25.50;;;5.18;;
34497;SDS011;20744;50.938;7.286;2023-12-20T06:14:12;33.80;;;5.97;;
34497;SDS011;20744;50.938;7.286;2023-12-20T06:16:39;26.45;;;5.00;;
34497;SDS011;20744;50.938;7.286;2023-12-20T06:19:07;31.80;;;5.80;;
34497;SDS011;20744;50.938;7.286;2023-12-20T06:21:37;25.52;;;5.47;;
34497;SDS011;20744;50.938;7.286;2023-12-20T06:24:06;25.80;;;6.07;;
34497;SDS011;20744;50.938;7.286;2023-12-20T06:26:33;20.80;;;5.57;;
34497;SDS011;20744;50.938;7.286;2023-12-20T06:29:00;22.77;;;5.53;;
34497;SDS011;20744;50.938;7.286;2023-12-20T06:31:27;24.38;;;6.45;;
34497;SDS011;20744;50.938;7.286;2023-12-20T06:33:54;24.27;;;5.78;;
34497;SDS011;20744;50.938;7.286;2023-12-20T06:36:24;22.00;;;5.90;;
34497;SDS011;20744;50.938;7.286;2023-12-20T06:38:55;24.00;;;5.93;;
34497;SDS011;20744;50.938;7.286;2023-12-20T06:41:24;23.08;;;5.45;;
34497;SDS011;20744;50.938;7.286;2023-12-20T06:43:51;20.77;;;5.50;;
34497;SDS011;20744;50.938;7.286;2023-12-20T06:46:19;24.67;;;5.80;;
34497;SDS011;20744;50.938;7.286;2023-12-20T06:48:46;26.30;;;6.32;;
34497;SDS011;20744;50.938;7.286;2023-12-20T06:51:14;25.25;;;5.72;;
34497;SDS011;20744;50.938;7.286;2023-12-20T06:53:41;23.17;;;5.78;;
34497;SDS011;20744;50.938;7.286;2023-12-20T06:56:09;20.25;;;5.30;;
34497;SDS011;20744;50.938;7.286;2023-12-20T06:58:38;26.95;;;5.72;;
34497;SDS011;20744;50.938;7.286;2023-12-20T07:01:05;26.63;;;6.32;;
34497;SDS011;20744;50.938;7.286;2023-12-20T07:03:37;25.23;;;6.43;;
34497;SDS011;20744;50.938;7.286;2023-12-20T07:06:04;27.00;;;6.00;;
34497;SDS011;20744;50.938;7.286;2023-12-20T07:08:32;26.77;;;5.40;;
34497;SDS011;20744;50.938;7.286;2023-12-20T07:10:59;26.20;;;5.63;;
34497;SDS011;20744;50.938;7.286;2023-12-20T07:13:26;24.83;;;5.82;;
34497;SDS011;20744;50.938;7.286;2023-12-20T07:15:55;30.70;;;5.65;;
34497;SDS011;20744;50.938;7.286;2023-12-20T07:18:24;22.45;;;5.63;;
34497;SDS011;20744;50.938;7.286;2023-12-20T07:20:51;22.27;;;6.20;;
34497;SDS011;20744;50.938;7.286;2023-12-20T07:23:19;29.13;;;5.95;;
34497;SDS011;20744;50.938;7.286;2023-12-20T07:25:46;36.92;;;6.63;;
34497;SDS011;20744;50.938;7.286;2023-12-20T07:28:14;33.70;;;6.20;;
34497;SDS011;20744;50.938;7.286;2023-12-20T07:30:41;27.33;;;6.20;;
34497;SDS011;20744;50.938;7.286;2023-12-20T07:33:09;28.83;;;5.78;;
34497;SDS011;20744;50.938;7.286;2023-12-20T07:35:38;27.95;;;5.65;;
34497;SDS011;20744;50.938;7.286;2023-12-20T07:38:05;30.40;;;5.95;;
34497;SDS011;20744;50.938;7.286;2023-12-20T07:40:33;25.02;;;5.68;;
34497;SDS011;20744;50.938;7.286;2023-12-20T07:43:00;24.42;;;6.05;;
34497;SDS011;20744;50.938;7.286;2023-12-20T07:45:27;26.63;;;5.75;;
34497;SDS011;20744;50.938;7.286;2023-12-20T07:47:54;21.10;;;4.90;;
34497;SDS011;20744;50.938;7.286;2023-12-20T07:50:23;20.17;;;5.75;;
34497;SDS011;20744;50.938;7.286;2023-12-20T07:52:51;18.25;;;5.43;;
34497;SDS011;20744;50.938;7.286;2023-12-20T07:55:18;21.33;;;5.18;;
34497;SDS011;20744;50.938;7.286;2023-12-20T07:57:46;20.90;;;4.90;;
34497;SDS011;20744;50.938;7.286;2023-12-20T08:00:13;27.58;;;5.22;;
34497;SDS011;20744;50.938;7.286;2023-12-20T08:02:40;23.77;;;5.00;;
34497;SDS011;20744;50.938;7.286;2023-12-20T08:05:08;26.48;;;5.15;;
34497;SDS011;20744;50.938;7.286;2023-12-20T08:07:37;22.05;;;4.88;;
34497;SDS011;20744;50.938;7.286;2023-12-20T08:10:04;21.92;;;4.75;;
34497;SDS011;20744;50.938;7.286;2023-12-20T08:12:33;22.95;;;5.32;;
34497;SDS011;20744;50.938;7.286;2023-12-20T08:15:01;26.33;;;5.25;;
34497;SDS011;20744;50.938;7.286;2023-12-20T08:17:29;22.90;;;4.45;;
34497;SDS011;20744;50.938;7.286;2023-12-20T08:19:56;28.35;;;5.30;;
34497;SDS011;20744;50.938;7.286;2023-12-20T08:22:25;21.80;;;5.00;;
34497;SDS011;20744;50.938;7.286;2023-12-20T08:24:53;26.58;;;5.05;;
34497;SDS011;20744;50.938;7.286;2023-12-20T08:27:21;23.70;;;5.43;;
34497;SDS011;20744;50.938;7.286;2023-12-20T08:29:48;24.77;;;5.13;;
34497;SDS011;20744;50.938;7.286;2023-12-20T08:32:15;33.97;;;5.13;;
34497;SDS011;20744;50.938;7.286;2023-12-20T08:34:43;29.58;;;5.72;;
34497;SDS011;20744;50.938;7.286;2023-12-20T08:37:10;26.77;;;4.90;;
34497;SDS011;20744;50.938;7.286;2023-12-20T08:39:37;19.52;;;5.03;;
34497;SDS011;20744;50.938;7.286;2023-12-20T08:42:06;23.40;;;5.38;;
34497;SDS011;20744;50.938;7.286;2023-12-20T08:44:33;22.13;;;5.35;;
34497;SDS011;20744;50.938;7.286;2023-12-20T08:47:00;26.88;;;5.82;;
34497;SDS011;20744;50.938;7.286;2023-12-20T08:49:28;22.05;;;5.03;;
34497;SDS011;20744;50.938;7.286;2023-12-20T08:51:56;25.17;;;5.30;;
34497;SDS011;20744;50.938;7.286;2023-12-20T08:54:24;26.77;;;5.43;;
34497;SDS011;20744;50.938;7.286;2023-12-20T08:56:51;19.13;;;4.80;;
34497;SDS011;20744;50.938;7.286;2023-12-20T08:59:20;28.60;;;6.13;;
34497;SDS011;20744;50.938;7.286;2023-12-20T09:01:47;24.80;;;5.25;;
34497;SDS011;20744;50.938;7.286;2023-12-20T09:04:19;24.35;;;4.80;;
34497;SDS011;20744;50.938;7.286;2023-12-20T09:06:46;35.05;;;4.75;;
34497;SDS011;20744;50.938;7.286;2023-12-20T09:09:13;20.10;;;4.80;;
34497;SDS011;20744;50.938;7.286;2023-12-20T09:11:43;21.25;;;4.30;;
34497;SDS011;20744;50.938;7.286;2023-12-20T09:14:11;21.95;;;4.35;;
34497;SDS011;20744;50.938;7.286;2023-12-20T09:16:39;17.88;;;4.53;;
34497;SDS011;20744;50.938;7.286;2023-12-20T09:19:07;27.20;;;4.40;;
34497;SDS011;20744;50.938;7.286;2023-12-20T09:21:34;15.20;;;4.20;;
34497;SDS011;20744;50.938;7.286;2023-12-20T09:24:01;22.05;;;4.72;;
34497;SDS011;20744;50.938;7.286;2023-12-20T09:26:29;20.95;;;4.03;;
34497;SDS011;20744;50.938;7.286;2023-12-20T09:28:56;30.73;;;4.35;;
34497;SDS011;20744;50.938;7.286;2023-12-20T09:31:23;21.95;;;4.72;;
34497;SDS011;20744;50.938;7.286;2023-12-20T09:33:52;21.60;;;4.75;;
34497;SDS011;20744;50.938;7.286;2023-12-20T09:36:19;23.00;;;4.57;;
34497;SDS011;20744;50.938;7.286;2023-12-20T09:38:47;14.05;;;3.70;;
34497;SDS011;20744;50.938;7.286;2023-12-20T09:41:14;22.77;;;4.30;;
34497;SDS011;20744;50.938;7.286;2023-12-20T09:43:41;24.70;;;4.18;;
34497;SDS011;20744;50.938;7.286;2023-12-20T09:46:08;25.05;;;4.43;;
34497;SDS011;20744;50.938;7.286;2023-12-20T09:48:39;21.73;;;4.05;;
34497;SDS011;20744;50.938;7.286;2023-12-20T09:51:08;23.30;;;4.50;;
34497;SDS011;20744;50.938;7.286;2023-12-20T09:53:36;22.00;;;5.47;;
34497;SDS011;20744;50.938;7.286;2023-12-20T09:56:04;30.95;;;4.45;;
34497;SDS011;20744;50.938;7.286;2023-12-20T09:58:35;23.10;;;4.68;;
34497;SDS011;20744;50.938;7.286;2023-12-20T10:01:06;19.48;;;4.00;;
34497;SDS011;20744;50.938;7.286;2023-12-20T10:03:33;19.05;;;4.13;;
34497;SDS011;20744;50.938;7.286;2023-12-20T10:06:01;19.98;;;4.22;;
34497;SDS011;20744;50.938;7.286;2023-12-20T10:08:30;21.23;;;3.92;;
34497;SDS011;20744;50.938;7.286;2023-12-20T10:10:57;22.27;;;3.97;;
34497;SDS011;20744;50.938;7.286;2023-12-20T10:13:28;17.55;;;3.10;;
34497;SDS011;20744;50.938;7.286;2023-12-20T10:15:55;17.30;;;3.85;;
34497;SDS011;20744;50.938;7.286;2023-12-20T10:18:23;19.65;;;4.10;;
34497;SDS011;20744;50.938;7.286;2023-12-20T10:20:50;21.70;;;3.85;;
34497;SDS011;20744;50.938;7.286;2023-12-20T10:23:18;17.23;;;3.85;;
34497;SDS011;20744;50.938;7.286;2023-12-20T10:25:57;17.55;;;3.42;;
34497;SDS011;20744;50.938;7.286;2023-12-20T10:28:24;18.67;;;3.83;;
34497;SDS011;20744;50.938;7.286;2023-12-20T10:30:53;25.55;;;4.28;;
34497;SDS011;20744;50.938;7.286;2023-12-20T10:33:23;16.17;;;3.95;;
34497;SDS011;20744;50.938;7.286;2023-12-20T10:35:51;24.95;;;4.35;;
34497;SDS011;20744;50.938;7.286;2023-12-20T10:38:19;16.50;;;3.38;;
34497;SDS011;20744;50.938;7.286;2023-12-20T10:40:47;15.48;;;3.45;;
34497;SDS011;20744;50.938;7.286;2023-12-20T10:43:16;20.30;;;3.47;;
34497;SDS011;20744;50.938;7.286;2023-12-20T10:45:43;20.98;;;3.78;;
34497;SDS011;20744;50.938;7.286;2023-12-20T10:48:12;23.02;;;3.67;;
34497;SDS011;20744;50.938;7.286;2023-12-20T10:50:39;20.75;;;3.85;;
34497;SDS011;20744;50.938;7.286;2023-12-20T10:53:08;16.08;;;3.15;;
34497;SDS011;20744;50.938;7.286;2023-12-20T10:55:37;21.38;;;4.45;;
34497;SDS011;20744;50.938;7.286;2023-12-20T10:58:06;22.33;;;3.50;;
34497;SDS011;20744;50.938;7.286;2023-12-20T11:00:35;16.58;;;3.30;;
34497;SDS011;20744;50.938;7.286;2023-12-20T11:03:06;16.77;;;3.35;;
34497;SDS011;20744;50.938;7.286;2023-12-20T11:05:36;18.67;;;3.92;;
34497;SDS011;20744;50.938;7.286;2023-12-20T11:08:07;23.75;;;3.75;;
34497;SDS011;20744;50.938;7.286;2023-12-20T11:10:37;19.20;;;3.85;;
34497;SDS011;20744;50.938;7.286;2023-12-20T11:13:07;22.40;;;2.83;;
34497;SDS011;20744;50.938;7.286;2023-12-20T11:15:37;13.88;;;3.20;;
34497;SDS011;20744;50.938;7.286;2023-12-20T11:18:04;15.82;;;3.17;;
34497;SDS011;20744;50.938;7.286;2023-12-20T11:20:36;15.77;;;3.17;;
34497;SDS011;20744;50.938;7.286;2023-12-20T11:23:04;16.15;;;3.40;;
34497;SDS011;20744;50.938;7.286;2023-12-20T11:25:38;20.95;;;3.60;;
34497;SDS011;20744;50.938;7.286;2023-12-20T11:28:12;17.73;;;3.65;;
34497;SDS011;20744;50.938;7.286;2023-12-20T11:30:44;18.90;;;2.72;;
34497;SDS011;20744;50.938;7.286;2023-12-20T11:33:12;18.50;;;3.08;;
34497;SDS011;20744;50.938;7.286;2023-12-20T11:35:40;19.27;;;3.10;;
34497;SDS011;20744;50.938;7.286;2023-12-20T11:38:08;22.75;;;3.50;;
34497;SDS011;20744;50.938;7.286;2023-12-20T11:40:35;25.42;;;3.13;;
34497;SDS011;20744;50.938;7.286;2023-12-20T11:43:03;20.65;;;3.65;;
34497;SDS011;20744;50.938;7.286;2023-12-20T11:45:31;16.75;;;3.55;;
34497;SDS011;20744;50.938;7.286;2023-12-20T11:48:01;22.77;;;3.53;;
34497;SDS011;20744;50.938;7.286;2023-12-20T11:50:29;12.57;;;2.80;;
34497;SDS011;20744;50.938;7.286;2023-12-20T11:52:56;14.57;;;2.70;;
34497;SDS011;20744;50.938;7.286;2023-12-20T11:55:24;16.23;;;3.30;;
34497;SDS011;20744;50.938;7.286;2023-12-20T11:57:51;16.33;;;3.35;;
34497;SDS011;20744;50.938;7.286;2023-12-20T12:00:19;15.93;;;2.78;;
34497;SDS011;20744;50.938;7.286;2023-12-20T12:02:56;11.77;;;2.45;;
34497;SDS011;20744;50.938;7.286;2023-12-20T12:05:25;18.05;;;3.10;;
34497;SDS011;20744;50.938;7.286;2023-12-20T12:07:52;20.65;;;3.50;;
34497;SDS011;20744;50.938;7.286;2023-12-20T12:10:21;15.07;;;3.22;;
34497;SDS011;20744;50.938;7.286;2023-12-20T12:12:49;17.52;;;3.42;;
34497;SDS011;20744;50.938;7.286;2023-12-20T12:15:18;15.02;;;3.15;;
34497;SDS011;20744;50.938;7.286;2023-12-20T12:17:52;14.52;;;2.90;;
34497;SDS011;20744;50.938;7.286;2023-12-20T12:20:19;19.48;;;3.28;;
34497;SDS011;20744;50.938;7.286;2023-12-20T12:22:57;23.75;;;4.45;;
34497;SDS011;20744;50.938;7.286;2023-12-20T12:25:25;11.07;;;2.78;;
34497;SDS011;20744;50.938;7.286;2023-12-20T12:27:53;19.08;;;2.78;;
34497;SDS011;20744;50.938;7.286;2023-12-20T12:30:20;19.35;;;3.58;;
34497;SDS011;20744;50.938;7.286;2023-12-20T12:32:47;14.98;;;3.35;;
34497;SDS011;20744;50.938;7.286;2023-12-20T12:35:15;15.23;;;3.15;;
34497;SDS011;20744;50.938;7.286;2023-12-20T12:37:42;18.00;;;3.20;;
34497;SDS011;20744;50.938;7.286;2023-12-20T12:40:12;16.83;;;3.70;;
34497;SDS011;20744;50.938;7.286;2023-12-20T12:42:40;17.85;;;3.10;;
34497;SDS011;20744;50.938;7.286;2023-12-20T12:45:07;16.55;;;3.33;;
34497;SDS011;20744;50.938;7.286;2023-12-20T12:47:36;22.15;;;4.50;;
34497;SDS011;20744;50.938;7.286;2023-12-20T12:50:04;15.82;;;3.22;;
34497;SDS011;20744;50.938;7.286;2023-12-20T12:52:31;18.25;;;3.28;;
34497;SDS011;20744;50.938;7.286;2023-12-20T12:54:59;19.90;;;3.30;;
34497;SDS011;20744;50.938;7.286;2023-12-20T12:57:27;16.70;;;3.50;;
34497;SDS011;20744;50.938;7.286;2023-12-20T12:59:55;15.32;;;3.03;;
34497;SDS011;20744;50.938;7.286;2023-12-20T13:02:23;20.17;;;3.47;;
34497;SDS011;20744;50.938;7.286;2023-12-20T13:04:50;13.65;;;3.25;;
34497;SDS011;20744;50.938;7.286;2023-12-20T13:07:18;21.38;;;4.60;;
34497;SDS011;20744;50.938;7.286;2023-12-20T13:09:45;16.70;;;3.95;;
34497;SDS011;20744;50.938;7.286;2023-12-20T13:12:12;22.90;;;4.43;;
34497;SDS011;20744;50.938;7.286;2023-12-20T13:14:41;21.58;;;4.53;;
34497;SDS011;20744;50.938;7.286;2023-12-20T13:17:09;13.77;;;3.97;;
34497;SDS011;20744;50.938;7.286;2023-12-20T13:19:36;27.55;;;4.03;;
34497;SDS011;20744;50.938;7.286;2023-12-20T13:22:03;19.25;;;3.78;;
34497;SDS011;20744;50.938;7.286;2023-12-20T13:24:31;15.05;;;3.90;;
34497;SDS011;20744;50.938;7.286;2023-12-20T13:26:58;22.40;;;3.88;;
34497;SDS011;20744;50.938;7.286;2023-12-20T13:29:25;20.27;;;4.55;;
34497;SDS011;20744;50.938;7.286;2023-12-20T13:31:54;18.10;;;4.65;;
34497;SDS011;20744;50.938;7.286;2023-12-20T13:34:22;19.35;;;4.90;;
34497;SDS011;20744;50.938;7.286;2023-12-20T13:36:49;19.65;;;4.68;;
34497;SDS011;20744;50.938;7.286;2023-12-20T13:39:17;25.00;;;5.10;;
34497;SDS011;20744;50.938;7.286;2023-12-20T13:41:44;29.25;;;6.18;;
34497;SDS011;20744;50.938;7.286;2023-12-20T13:44:11;24.40;;;5.25;;
34497;SDS011;20744;50.938;7.286;2023-12-20T13:46:39;32.67;;;6.22;;
34497;SDS011;20744;50.938;7.286;2023-12-20T13:49:08;17.33;;;4.70;;
34497;SDS011;20744;50.938;7.286;2023-12-20T13:51:37;23.35;;;6.40;;
34497;SDS011;20744;50.938;7.286;2023-12-20T13:54:04;22.35;;;5.50;;
34497;SDS011;20744;50.938;7.286;2023-12-20T13:56:32;16.77;;;5.95;;
34497;SDS011;20744;50.938;7.286;2023-12-20T13:58:59;27.23;;;6.75;;
34497;SDS011;20744;50.938;7.286;2023-12-20T14:01:26;23.83;;;5.70;;
34497;SDS011;20744;50.938;7.286;2023-12-20T14:03:53;22.05;;;6.43;;
34497;SDS011;20744;50.938;7.286;2023-12-20T14:06:22;26.40;;;6.78;;
34497;SDS011;20744;50.938;7.286;2023-12-20T14:08:49;20.90;;;6.35;;
34497;SDS011;20744;50.938;7.286;2023-12-20T14:11:17;18.65;;;6.07;;
34497;SDS011;20744;50.938;7.286;2023-12-20T14:13:44;25.08;;;6.65;;
34497;SDS011;20744;50.938;7.286;2023-12-20T14:16:12;22.35;;;6.60;;
34497;SDS011;20744;50.938;7.286;2023-12-20T14:18:41;27.90;;;6.85;;
34497;SDS011;20744;50.938;7.286;2023-12-20T14:21:08;23.95;;;6.38;;
34497;SDS011;20744;50.938;7.286;2023-12-20T14:23:37;23.02;;;6.47;;
34497;SDS011;20744;50.938;7.286;2023-12-20T14:26:04;26.70;;;5.68;;
34497;SDS011;20744;50.938;7.286;2023-12-20T14:28:34;20.25;;;5.80;;
34497;SDS011;20744;50.938;7.286;2023-12-20T14:31:01;17.85;;;5.20;;
34497;SDS011;20744;50.938;7.286;2023-12-20T14:33:30;14.35;;;5.32;;
34497;SDS011;20744;50.938;7.286;2023-12-20T14:35:57;17.35;;;4.97;;
34497;SDS011;20744;50.938;7.286;2023-12-20T14:38:25;19.88;;;4.93;;